Aérodrome :
LOGIN :

S'inscrire | Disclaimer

   EN    FR    IT 

 










Légende :    VFR   VFR Marginal   IFR   IFR Intensif   IFR Très Intensif
Visi : 
Plafond : 
>= 8 km
>= 3000ft
5 à 8 km
1000 à 3000 ft
1500m à 5 km
500 à 1000 ft
800 à 1500m
200 à 500 ft
< 800m
< 200 ft
Symboles :   Orages  Brouillard  Fortes neiges  Fortes précipitations  Vent > 20 kt
SIGMETs :   Divers  Orages  Givrage  Turbulence  Onde Orograph.  Cendres Volcan.






- Altitude de l'aérodrome : 140 ft


ESTL - Ljungbyhed

DERNIER METAR :
  • 260820Z AUTO 34005KT 9999 -SN FEW012/// SCT015/// BKN018/// 01/01 Q0987 REUP

METARs EXPIRÉS :
  • 260750Z AUTO 33006KT 9999 OVC011/// 01/01 Q0987
  • 260720Z AUTO 33005KT 9999 FEW013/// OVC059/// 01/01 Q0986
  • 260650Z AUTO 32005KT 9999 FEW014/// BKN049/// 01/01 Q0986
  • 260620Z AUTO 31006KT 9999 FEW009/// BKN021/// OVC051/// 01/01 Q0985 RESHUP

TAF TAF ESTL
Valide du 26 à 09h jusqu'au 26 à 16h UTC


260802Z 2609/2616 34005KT 9999 BKN010
BECMG 2609/2611 BKN030



MET'MAP, la Météo Aéronautique d'un coup d'oeil ! - Copyright ORBIFLY Décembre 2007 - Disclaimer

ORBIFLY MET'MAP TEAM :

Programmation & Développement : Alexandra Zaïnal
Sur une idée originale de : Baudouin d'Aumeries
Assistance à la programmation : Marc-Olivier Méhu
Soutien technique & logistique : Manuel Goepfert

Contact : metmap@orbifly.com




SOURCES & CREDITS :

   NOAA